ROMMA est une association bénévole à but non lucratif. Votre soutien est indispensable : ADHERER à ROMMA ou FAIRE un DON

Ambérieu-en-Bugey - (01, Ain)

Bugey (255 m)   Longitude: 05° 21' 7"E   Latitude: 45° 58' 24"N Station partenaire n°84
 

Détail journalier du     <<     >>

Température Precipitation Humidité Pression Vent Dir Rafale Dir. rafale
Heure (°C) (mm) (%) (hPa) (km/h) (km/h)
01:00 11.706910175SSO26SSE
02:00 11.407110176S21SSE
03:00 11.407110185S18SSO
04:00 11.506910184S21SSE
05:00 11.606710185S23SSE
06:00 11.406810186S19SSE
07:00 11.306910187S27SSE
08:00 9.60.68210195S26S
09:00 9.70.28310192S15SSE
10:00 10.408210201SSO16SO
11:00 11.107910204SSO23SSO
12:00 11.30.28210204SO21SSO
13:00 11.308010205SSO21S
14:00 12.207710207S23SSE
15:00 12.407710206SSO24SSE
16:00 12.607610205SO26OSO
17:00 12.707310204SSO18S
18:00 12.607410203S15S
19:00 13.106910204S19S
20:00 12.706910204S16SSE
21:00 11.907110201SSE15S
22:00 10.4076102103SSO
23:00 9.8081102105SSO
minuit 9.2083102100---

Graphique du 16-04-2019

 

Serveur OMMA